Time;durP1;ratioP1;P1;durP2;ratioP2;P2;SDS_P1;SDS_P2;PMS_P1;PMS_P2;Temp;Humidity;BMP_temperature;BMP_pressure;BME280_temperature;BME280_humidity;BME280_pressure;Samples;Min_cycle;Max_cycle;Signal;HPM_P1;HPM_P2
2022/11/12 00:01:07;;;;;;;;;48.75;41.75;;;;;11.11;100.00;102531.63;5061090;28;45390;-78
2022/11/12 00:03:33;;;;;;;;;47.50;38.25;;;;;11.13;100.00;102534.13;5061743;28;45361;-78
2022/11/12 00:05:58;;;;;;;;;43.50;37.50;;;;;11.02;100.00;102527.13;5061628;28;45385;-79
2022/11/12 00:08:23;;;;;;;;;49.25;40.25;;;;;11.04;100.00;102533.13;5060255;28;45340;-78
2022/11/12 00:10:49;;;;;;;;;56.00;46.50;;;;;11.05;100.00;102526.81;5061353;28;45516;-79
2022/11/12 00:13:15;;;;;;;;;53.75;44.00;;;;;11.06;100.00;102519.69;5061341;28;45278;-79
2022/11/12 00:15:41;;;;;;;;;46.00;37.50;;;;;11.03;100.00;102522.63;5061613;28;45264;-79
2022/11/12 00:18:06;;;;;;;;;53.00;42.75;;;;;11.08;100.00;102539.84;5060369;28;45261;-79
2022/11/12 00:20:32;;;;;;;;;51.50;43.00;;;;;11.08;100.00;102537.19;5059942;28;47046;-79
2022/11/12 00:22:58;;;;;;;;;51.75;42.25;;;;;11.09;100.00;102532.72;5061501;28;45214;-79
2022/11/12 00:25:23;;;;;;;;;45.75;39.75;;;;;11.07;100.00;102526.69;5060869;28;45198;-79
2022/11/12 00:27:49;;;;;;;;;45.00;39.50;;;;;11.10;100.00;102534.41;5060263;28;45454;-79
2022/11/12 00:30:14;;;;;;;;;47.75;39.25;;;;;11.05;100.00;102526.00;5061112;28;45427;-79
2022/11/12 00:32:40;;;;;;;;;43.50;37.75;;;;;11.08;100.00;102523.88;5060114;28;47656;-79
2022/11/12 00:35:06;;;;;;;;;50.50;42.75;;;;;11.06;100.00;102525.88;5061067;28;45363;-79
2022/11/12 00:37:31;;;;;;;;;50.50;42.75;;;;;11.06;100.00;102519.69;5061170;28;45395;-79
2022/11/12 00:39:57;;;;;;;;;49.25;41.50;;;;;11.06;100.00;102509.91;5061083;28;45391;-79
2022/11/12 00:42:22;;;;;;;;;51.25;41.50;;;;;11.09;100.00;102516.75;5059640;28;47860;-79
2022/11/12 00:44:48;;;;;;;;;42.75;37.50;;;;;11.06;100.00;102506.38;5059830;28;45400;-79
2022/11/12 00:47:14;;;;;;;;;46.50;38.00;;;;;11.09;100.00;102511.44;5061206;28;45289;-79
2022/11/12 00:49:40;;;;;;;;;41.25;36.50;;;;;11.01;100.00;102497.97;5059327;28;46533;-79
2022/11/12 00:52:05;;;;;;;;;44.75;36.00;;;;;11.04;100.00;102508.34;5060692;28;45378;-79
2022/11/12 00:54:30;;;;;;;;;38.50;34.50;;;;;11.07;100.00;102513.38;5059343;28;47290;-79
2022/11/12 00:56:56;;;;;;;;;46.75;39.75;;;;;11.05;100.00;102505.53;5061278;28;45368;-79
2022/11/12 00:59:21;;;;;;;;;43.50;36.75;;;;;11.01;100.00;102505.97;5060671;28;45295;-78
2022/11/12 01:01:46;;;;;;;;;45.25;38.75;;;;;11.04;100.00;102516.34;5066857;28;53242;-78
2022/11/12 01:04:12;;;;;;;;;47.50;40.25;;;;;10.88;100.00;102500.84;5059504;28;45306;-79
2022/11/12 01:06:40;;;;;;;;;45.50;40.25;;;;;11.04;100.00;102511.84;5059314;28;45276;-79
2022/11/12 01:09:07;;;;;;;;;39.50;34.50;;;;;11.05;100.00;102508.19;5060636;28;45402;-79
2022/11/12 01:11:33;;;;;;;;;47.00;39.25;;;;;11.06;100.00;102509.03;5058931;28;46149;-79
2022/11/12 01:14:02;;;;;;;;;38.25;35.00;;;;;11.03;100.00;102501.31;5060457;28;45437;-79
2022/11/12 01:16:30;;;;;;;;;45.25;35.50;;;;;11.09;100.00;102511.44;5059169;28;45408;-79
2022/11/12 01:18:57;;;;;;;;;38.50;33.75;;;;;11.08;100.00;102505.25;5060323;28;45323;-79
2022/11/12 01:21:26;;;;;;;;;30.00;30.00;;;;;11.08;100.00;102501.78;5060025;28;45359;-79
2022/11/12 01:23:51;;;;;;;;;36.00;32.25;;;;;11.05;100.00;102494.88;5060000;28;45435;-79
2022/11/12 01:26:20;;;;;;;;;29.67;27.67;;;;;11.08;100.00;102497.28;5060521;28;45319;-79
2022/11/12 01:28:46;;;;;;;;;29.33;27.00;;;;;11.10;100.00;102491.81;5060171;28;45323;-79
2022/11/12 01:31:14;;;;;;;;;25.00;25.00;;;;;11.10;100.00;102487.34;5058840;28;48054;-78
2022/11/12 01:33:40;;;;;;;;;29.00;27.67;;;;;10.99;100.00;102464.34;5060113;28;45390;-78
2022/11/12 01:36:06;;;;;;;;;25.67;24.33;;;;;11.09;100.00;102484.84;5060266;28;45363;-78
2022/11/12 01:38:35;;;;;;;;;22.67;21.33;;;;;11.07;100.00;102490.28;5059885;28;45560;-78
2022/11/12 01:41:01;;;;;;;;;21.33;19.67;;;;;11.10;100.00;102489.16;5058648;28;47082;-79
2022/11/12 01:43:26;;;;;;;;;18.33;18.33;;;;;11.15;100.00;102486.97;5060137;28;45289;-78
2022/11/12 01:45:52;;;;;;;;;24.00;21.00;;;;;11.15;100.00;102481.63;5060262;28;45367;-78
2022/11/12 01:48:43;;;;;;;;;21.67;20.00;;;;;11.20;100.00;102490.03;5058824;28;45979;-77
2022/11/12 01:51:10;;;;;;;;;18.00;16.00;;;;;11.17;100.00;102482.34;5058120;28;48057;-78
2022/11/12 01:53:41;;;;;;;;;18.67;18.00;;;;;11.19;100.00;102480.38;5058569;28;45427;-78
2022/11/12 01:56:07;;;;;;;;;19.33;18.33;;;;;11.19;100.00;102476.88;5059953;28;45342;-79
2022/11/12 01:58:36;;;;;;;;;21.00;21.00;;;;;11.21;100.00;102490.88;5058607;28;46262;-79
2022/11/12 02:01:02;;;;;;;;;26.00;25.67;;;;;11.17;100.00;102469.03;5059467;28;45531;-79
2022/11/12 02:03:27;;;;;;;;;26.33;25.33;;;;;11.17;100.00;102461.06;5059930;28;45485;-79
2022/11/12 02:06:19;;;;;;;;;28.33;28.33;;;;;11.29;100.00;102483.09;5058343;28;45372;-78
2022/11/12 02:08:45;;;;;;;;;35.00;32.67;;;;;11.21;100.00;102486.41;5046877;28;45504;-78
2022/11/12 02:11:15;;;;;;;;;30.00;28.67;;;;;11.23;100.00;102489.78;5059358;28;45564;-78
2022/11/12 02:14:00;;;;;;;;;22.00;20.67;;;;;11.15;100.00;102481.63;5058542;28;45727;-78
2022/11/12 02:16:46;;;;;;;;;28.33;24.67;;;;;11.23;100.00;102487.09;5059596;28;45586;-79
2022/11/12 02:19:15;;;;;;;;;29.33;29.00;;;;;11.26;100.00;102487.81;5059422;28;45198;-78
2022/11/12 02:21:41;;;;;;;;;31.33;30.00;;;;;11.23;100.00;102486.28;5057994;28;47324;-78
2022/11/12 02:24:12;;;;;;;;;30.00;30.00;;;;;11.24;100.00;102478.16;5059152;28;45356;-78
2022/11/12 02:26:41;;;;;;;;;27.33;27.00;;;;;11.23;100.00;102481.78;5059446;28;45362;-78
2022/11/12 02:29:06;;;;;;;;;25.00;23.67;;;;;11.17;100.00;102478.84;5059053;28;45493;-78
2022/11/12 02:31:32;;;;;;;;;25.00;25.00;;;;;11.08;100.00;102461.88;5059191;28;46200;-78
2022/11/12 02:33:57;;;;;;;;;21.67;21.67;;;;;11.13;100.00;102475.59;5059251;28;45315;-78
2022/11/12 02:36:23;;;;;;;;;23.00;22.33;;;;;11.03;100.00;102467.59;5059459;28;45521;-78
2022/11/12 02:38:48;;;;;;;;;17.33;16.33;;;;;11.05;100.00;102478.09;5059157;28;45501;-78
2022/11/12 02:41:14;;;;;;;;;18.00;18.00;;;;;10.97;100.00;102458.34;5058057;28;47182;-79
2022/11/12 02:43:40;;;;;;;;;17.00;17.00;;;;;11.04;100.00;102463.13;5059361;28;45350;-78
2022/11/12 02:46:06;;;;;;;;;18.67;18.67;;;;;11.07;100.00;102476.97;5058061;28;45319;-78
2022/11/12 02:48:31;;;;;;;;;19.00;18.00;;;;;10.99;100.00;102460.88;5057851;28;47237;-78
2022/11/12 02:50:57;;;;;;;;;17.67;17.33;;;;;11.05;100.00;102467.47;5057281;28;48123;-78
2022/11/12 02:53:22;;;;;;;;;17.00;16.67;;;;;10.97;100.00;102457.47;5059167;28;45309;-78
2022/11/12 02:55:47;;;;;;;;;24.33;18.67;;;;;10.91;100.00;102450.88;5059198;28;45326;-78
2022/11/12 02:58:13;;;;;;;;;18.33;17.00;;;;;10.98;100.00;102467.13;5057823;28;46158;-78
2022/11/12 03:00:38;;;;;;;;;18.67;17.33;;;;;11.01;100.00;102472.19;5063638;28;46147;-78
2022/11/12 03:03:03;;;;;;;;;18.67;17.00;;;;;10.98;100.00;102467.13;5059099;28;50290;-78
2022/11/12 03:05:31;;;;;;;;;18.00;17.00;;;;;10.89;100.00;102458.16;5059166;28;45374;-78
2022/11/12 03:08:06;;;;;;;;;18.33;16.33;;;;;10.95;100.00;102464.75;5057397;28;46260;-78
2022/11/12 03:10:32;;;;;;;;;8.33;7.33;;;;;10.92;100.00;102460.53;5059030;28;46360;-78
2022/11/12 03:12:59;;;;;;;;;20.00;20.00;;;;;10.93;100.00;102466.72;5058656;28;45525;-78
2022/11/12 03:15:25;;;;;;;;;16.67;16.67;;;;;10.90;100.00;102459.84;5057736;28;45332;-78
2022/11/12 03:17:51;;;;;;;;;21.33;20.33;;;;;10.88;100.00;102447.63;5058732;28;45481;-78
2022/11/12 03:20:16;;;;;;;;;18.00;18.00;;;;;10.81;100.00;102450.00;5058382;28;46233;-78
2022/11/12 03:22:42;;;;;;;;;21.33;19.33;;;;;10.83;100.00;102450.69;5058763;28;45225;-79
2022/11/12 03:25:08;;;;;;;;;19.00;19.00;;;;;10.76;100.00;102430.94;5058820;28;45296;-78
2022/11/12 03:27:34;;;;;;;;;19.67;19.67;;;;;10.79;100.00;102444.81;5058792;28;45331;-79
2022/11/12 03:29:59;;;;;;;;;17.33;16.33;;;;;10.66;100.00;102420.28;5058525;28;45323;-78
2022/11/12 03:32:24;;;;;;;;;22.00;20.33;;;;;10.77;100.00;102428.16;5058496;28;45340;-78
2022/11/12 03:34:50;;;;;;;;;18.33;18.00;;;;;10.83;100.00;102429.41;5059863;28;45378;-78
2022/11/12 03:37:15;;;;;;;;;17.00;14.67;;;;;10.78;100.00;102421.88;5062016;28;45357;-78
2022/11/12 03:39:41;;;;;;;;;19.67;19.00;;;;;10.77;100.00;102416.69;5062123;28;45526;-78
2022/11/12 03:42:06;;;;;;;;;5.00;5.00;;;;;10.77;100.00;102424.66;5062127;28;45303;-78
2022/11/12 03:44:32;;;;;;;;;19.00;17.00;;;;;10.75;100.00;102422.13;5062076;28;45450;-79
2022/11/12 03:46:57;;;;;;;;;30.33;29.00;;;;;10.75;100.00;102435.44;5062097;28;45355;-78
2022/11/12 03:49:22;;;;;;;;;22.67;22.67;;;;;10.71;100.00;102432.19;5060390;28;46715;-79
2022/11/12 03:51:48;;;;;;;;;28.00;26.33;;;;;10.75;100.00;102450.53;5060525;28;45404;-78
2022/11/12 03:54:13;;;;;;;;;23.00;23.00;;;;;10.66;100.00;102433.56;5061948;28;45388;-78
2022/11/12 03:56:38;;;;;;;;;22.67;21.33;;;;;10.70;100.00;102445.63;5061895;28;45291;-79
2022/11/12 03:59:04;;;;;;;;;24.00;24.00;;;;;10.70;100.00;102454.44;5060482;28;47521;-79
2022/11/12 04:01:30;;;;;;;;;23.67;20.00;;;;;10.63;100.00;102445.31;5066727;28;45561;-78
2022/11/12 04:03:55;;;;;;;;;21.00;19.33;;;;;10.59;100.00;102441.22;5062034;28;45150;-79
2022/11/12 04:09:05;;;;;;;;;21.67;20.67;;;;;10.64;100.00;102443.47;5061574;28;45437;-78
2022/11/12 04:11:30;;;;;;;;;20.33;20.33;;;;;10.69;100.00;102446.59;5059912;28;45766;-79
2022/11/12 04:13:55;;;;;;;;;21.00;19.67;;;;;10.68;100.00;102450.22;5061694;28;45311;-78
2022/11/12 04:22:01;;;;;;;;;19.00;17.67;;;;;10.62;100.00;102448.94;5061248;28;45223;-78
2022/11/12 04:27:21;;;;;;;;;22.33;20.67;;;;;10.64;100.00;102454.97;5061038;28;45457;-78
2022/11/12 04:32:37;;;;;;;;;17.33;16.33;;;;;10.63;100.00;102457.75;5061216;28;45397;-79
2022/11/12 04:35:04;;;;;;;;;17.33;16.33;;;;;10.67;100.00;102459.19;5061218;28;45267;-78
2022/11/12 04:37:43;;;;;;;;;17.67;17.67;;;;;10.67;100.00;102460.03;5060874;28;47053;-78
2022/11/12 04:45:40;;;;;;;;;21.67;18.00;;;;;10.56;100.00;102437.00;5060922;28;45204;-78
2022/11/12 04:48:05;;;;;;;;;18.00;15.00;;;;;10.57;100.00;102437.88;5060903;28;45396;-78
2022/11/12 04:50:31;;;;;;;;;19.67;17.67;;;;;10.58;100.00;102428.91;5060667;28;45721;-78
2022/11/12 04:52:56;;;;;;;;;21.33;16.67;;;;;10.57;100.00;102432.56;5060761;28;45605;-79
2022/11/12 04:55:22;;;;;;;;;21.00;19.67;;;;;10.59;100.00;102435.91;5061261;28;45436;-79
2022/11/12 04:57:47;;;;;;;;;15.00;15.00;;;;;10.61;100.00;102444.59;5059473;28;45860;-79
2022/11/12 05:00:13;;;;;;;;;21.00;20.33;;;;;10.52;100.00;102424.13;5061914;28;45459;-78
2022/11/12 05:02:38;;;;;;;;;19.67;17.67;;;;;10.56;100.00;102425.53;5066511;28;45504;-78
2022/11/12 05:05:04;;;;;;;;;26.00;24.00;;;;;10.65;100.00;102446.00;5061040;28;45287;-78
2022/11/12 05:07:31;;;;;;;;;21.00;19.33;;;;;10.66;100.00;102442.41;5060530;28;45432;-79
2022/11/12 05:09:57;;;;;;;;;24.67;19.33;;;;;10.57;100.00;102427.22;5060470;28;46028;-78
2022/11/12 05:12:22;;;;;;;;;21.33;19.00;;;;;10.59;100.00;102430.59;5060449;28;45264;-79
2022/11/12 05:14:47;;;;;;;;;20.67;20.00;;;;;10.58;100.00;102432.41;5059427;28;45285;-78
2022/11/12 05:17:13;;;;;;;;;22.67;22.67;;;;;10.58;100.00;102434.22;5059180;28;45879;-78
2022/11/12 05:19:39;;;;;;;;;21.00;19.67;;;;;10.58;100.00;102443.06;5060318;28;46496;-78
2022/11/12 05:22:04;;;;;;;;;18.00;17.33;;;;;10.60;100.00;102448.25;5059140;28;45298;-78
2022/11/12 05:24:35;;;;;;;;;19.00;18.33;;;;;10.58;100.00;102439.53;5060657;28;45253;-78
2022/11/12 05:27:01;;;;;;;;;15.67;15.67;;;;;10.54;100.00;102438.13;5060453;28;45343;-78
2022/11/12 05:29:26;;;;;;;;;18.00;17.00;;;;;10.52;100.00;102443.59;5058949;28;48348;-78
2022/11/12 05:31:51;;;;;;;;;18.00;14.33;;;;;10.54;100.00;102449.59;5060508;28;45392;-78
2022/11/12 05:34:17;;;;;;;;;19.00;18.00;;;;;10.47;100.00;102443.13;5059248;28;45403;-79
2022/11/12 05:36:42;;;;;;;;;19.67;18.67;;;;;10.49;100.00;102451.81;5060264;28;45474;-78
2022/11/12 05:39:07;;;;;;;;;17.67;16.00;;;;;10.43;100.00;102431.03;5058811;28;47056;-78
2022/11/12 05:41:33;;;;;;;;;20.00;19.00;;;;;10.42;100.00;102438.16;5060171;28;45334;-78
2022/11/12 05:43:58;;;;;;;;;16.67;15.33;;;;;10.42;100.00;102453.28;5058939;28;45625;-79
2022/11/12 05:46:23;;;;;;;;;19.00;17.00;;;;;10.38;100.00;102439.41;5060198;28;48687;-79
2022/11/12 05:48:49;;;;;;;;;21.00;18.67;;;;;10.34;100.00;102438.00;5059956;28;45277;-78
2022/11/12 05:51:14;;;;;;;;;18.33;18.00;;;;;10.39;100.00;102446.44;5059348;28;52234;-79
2022/11/12 05:53:40;;;;;;;;;18.00;18.00;;;;;10.39;100.00;102449.09;5058900;28;45272;-79
2022/11/12 05:56:07;;;;;;;;;18.33;18.00;;;;;10.35;100.00;102445.84;5060009;28;45415;-79
2022/11/12 05:58:32;;;;;;;;;18.00;16.00;;;;;10.25;100.00;102431.66;5057953;28;47524;-78
2022/11/12 06:00:58;;;;;;;;;19.67;17.33;;;;;10.25;100.00;102434.31;5058325;28;45468;-79
2022/11/12 06:03:24;;;;;;;;;18.33;18.33;;;;;10.35;100.00;102452.94;5058874;28;45468;-78
2022/11/12 06:05:50;;;;;;;;;21.00;21.00;;;;;10.21;100.00;102433.72;5058276;28;47391;-79
2022/11/12 06:08:16;;;;;;;;;18.67;17.33;;;;;10.28;100.00;102443.81;5059223;28;45344;-79
2022/11/12 06:10:41;;;;;;;;;15.67;15.67;;;;;10.30;100.00;102458.66;5059836;28;45271;-78
2022/11/12 06:13:07;;;;;;;;;21.00;18.00;;;;;10.31;100.00;102451.53;5059796;28;45883;-78
2022/11/12 06:15:32;;;;;;;;;19.33;19.00;;;;;10.34;100.00;102454.78;5058210;28;47235;-79
2022/11/12 06:17:58;;;;;;;;;10.33;8.00;;;;;10.29;100.00;102454.31;5059583;28;45671;-79
2022/11/12 06:20:23;;;;;;;;;16.67;16.67;;;;;10.27;100.00;102455.44;5059258;28;45329;-78
2022/11/12 06:22:49;;;;;;;;;15.67;14.67;;;;;10.27;100.00;102464.25;5059743;28;45272;-77
2022/11/12 06:25:15;;;;;;;;;13.67;12.00;;;;;10.24;100.00;102475.16;5059323;28;45381;-78
2022/11/12 06:27:40;;;;;;;;;17.67;15.33;;;;;10.26;100.00;102483.81;5059782;28;45385;-77
2022/11/12 06:30:07;;;;;;;;;17.67;16.33;;;;;10.22;100.00;102477.06;5059390;28;45281;-77
2022/11/12 06:32:33;;;;;;;;;19.67;18.67;;;;;10.26;100.00;102485.66;5058166;28;45467;-77
2022/11/12 06:34:58;;;;;;;;;17.00;17.00;;;;;10.22;100.00;102482.38;5059242;28;45362;-77
2022/11/12 06:37:23;;;;;;;;;17.33;17.33;;;;;10.16;100.00;102470.47;5057701;28;50485;-77
2022/11/12 06:39:49;;;;;;;;;14.00;14.00;;;;;10.07;100.00;102463.25;5058184;28;45308;-78
2022/11/12 06:42:15;;;;;;;;;16.33;16.33;;;;;10.18;100.00;102479.13;5059453;28;45306;-77
2022/11/12 06:44:40;;;;;;;;;21.67;20.67;;;;;10.16;100.00;102474.94;5059367;28;45426;-77
2022/11/12 06:47:06;;;;;;;;;17.67;16.67;;;;;10.01;100.00;102447.84;5059325;28;46471;-78
2022/11/12 06:49:31;;;;;;;;;22.00;19.67;;;;;10.07;100.00;102482.72;5058769;28;45422;-77
2022/11/12 06:51:56;;;;;;;;;16.33;16.33;;;;;10.14;100.00;102483.03;5059277;28;45323;-78
2022/11/12 06:54:22;;;;;;;;;18.67;18.67;;;;;10.14;100.00;102475.06;5057746;28;45856;-77
2022/11/12 06:56:47;;;;;;;;;16.00;15.33;;;;;10.11;100.00;102477.97;5059268;28;45485;-77
2022/11/12 06:59:13;;;;;;;;;19.67;17.67;;;;;10.07;100.00;102471.22;5059049;28;45530;-77
2022/11/12 07:01:38;;;;;;;;;18.67;18.33;;;;;10.08;100.00;102476.41;5059165;28;45287;-77
2022/11/12 07:04:03;;;;;;;;;18.00;18.00;;;;;10.09;100.00;102479.94;5057708;28;47034;-77
2022/11/12 07:06:29;;;;;;;;;21.00;19.33;;;;;10.16;100.00;102482.91;5058642;28;45345;-77
2022/11/12 07:08:55;;;;;;;;;19.67;18.00;;;;;10.07;100.00;102463.25;5051719;28;45464;-77
2022/11/12 07:11:20;;;;;;;;;17.67;16.67;;;;;10.15;100.00;102465.28;5058691;28;45587;-76
2022/11/12 07:13:46;;;;;;;;;18.67;18.00;;;;;10.22;100.00;102472.63;5062383;28;45362;-76
2022/11/12 07:16:12;;;;;;;;;15.33;14.33;;;;;10.18;100.00;102460.53;5061089;28;48151;-77
2022/11/12 07:18:38;;;;;;;;;17.67;17.67;;;;;10.22;100.00;102472.63;5058061;28;45402;-76
2022/11/12 07:21:06;;;;;;;;;17.00;16.67;;;;;10.22;100.00;102469.97;5052745;28;45422;-76
2022/11/12 07:23:34;;;;;;;;;22.67;21.00;;;;;10.20;100.00;102463.06;5062184;28;45236;-78
2022/11/12 07:26:02;;;;;;;;;18.00;18.00;;;;;10.08;100.00;102455.16;5062135;28;45346;-79
2022/11/12 07:28:28;;;;;;;;;40.67;31.67;;;;;10.08;100.00;102449.00;5062188;28;45358;-79
2022/11/12 07:31:02;;;;;;;;;19.33;19.33;;;;;10.17;100.00;102473.94;5062205;28;45351;-78
2022/11/12 07:33:28;;;;;;;;;19.33;17.67;;;;;10.01;100.00;102443.38;5060646;28;47565;-79
2022/11/12 07:36:02;;;;;;;;;18.00;18.00;;;;;10.07;100.00;102455.28;5060494;28;48263;-78
2022/11/12 07:38:29;;;;;;;;;19.33;18.33;;;;;10.25;100.00;102482.13;5061934;28;45280;-78
2022/11/12 07:41:00;;;;;;;;;19.00;17.00;;;;;10.26;100.00;102478.50;5060506;28;45412;-79
2022/11/12 07:43:26;;;;;;;;;18.67;18.67;;;;;10.20;100.00;102471.03;5062069;28;45537;-78
2022/11/12 07:45:52;;;;;;;;;18.00;17.00;;;;;10.19;100.00;102469.34;5060326;28;47437;-79
2022/11/12 07:48:17;;;;;;;;;22.00;19.33;;;;;10.22;100.00;102477.94;5061901;28;45315;-78
2022/11/12 07:50:42;;;;;;;;;20.67;19.67;;;;;10.34;100.00;102499.97;5060334;28;45526;-79
2022/11/12 07:53:07;;;;;;;;;19.33;19.00;;;;;10.28;100.00;102487.19;5061945;28;46007;-79
2022/11/12 07:55:33;;;;;;;;;18.00;16.00;;;;;10.31;100.00;102492.25;5059667;28;50474;-79
2022/11/12 07:57:59;;;;;;;;;21.00;19.33;;;;;10.36;100.00;102490.03;5060177;28;45532;-79
2022/11/12 08:00:24;;;;;;;;;22.00;20.67;;;;;10.42;100.00;102490.50;5063021;28;45504;-79
2022/11/12 08:02:49;;;;;;;;;22.00;21.00;;;;;10.55;100.00;102499.16;5060001;28;47228;-79
2022/11/12 08:05:15;;;;;;;;;18.67;17.33;;;;;10.52;100.00;102512.69;5060334;28;46976;-79
2022/11/12 08:07:40;;;;;;;;;24.33;22.00;;;;;10.52;100.00;102503.88;5061409;28;45352;-78
2022/11/12 08:10:06;;;;;;;;;19.67;19.00;;;;;10.29;100.00;102466.75;5061868;28;45224;-78
2022/11/12 08:12:32;;;;;;;;;23.33;20.33;;;;;10.51;100.00;102502.19;5061248;28;45294;-79
2022/11/12 08:14:57;;;;;;;;;21.00;18.33;;;;;10.63;100.00;102522.44;5061275;28;45248;-77
2022/11/12 08:17:22;;;;;;;;;21.00;19.00;;;;;10.63;100.00;102521.56;5061723;28;45322;-78
2022/11/12 08:19:48;;;;;;;;;21.33;20.67;;;;;10.65;100.00;102525.78;5060111;28;45291;-78
2022/11/12 08:22:14;;;;;;;;;19.33;18.67;;;;;10.57;100.00;102513.13;5060804;28;45458;-77
2022/11/12 08:24:39;;;;;;;;;17.33;17.33;;;;;10.53;100.00;102505.59;5060129;28;47309;-78
2022/11/12 08:27:04;;;;;;;;;22.00;20.33;;;;;10.44;100.00;102484.06;5060931;28;45225;-77
2022/11/12 08:29:30;;;;;;;;;44.00;37.50;;;;;10.68;100.00;102519.34;5061465;28;45286;-78
2022/11/12 08:31:55;;;;;;;;;38.00;35.00;;;;;10.76;100.00;102527.53;5059854;28;46061;-78
2022/11/12 08:34:20;;;;;;;;;53.00;44.00;;;;;10.85;100.00;102526.75;5060786;28;45481;-79
2022/11/12 08:36:46;;;;;;;;;27.00;25.33;;;;;10.95;100.00;102541.91;5061232;28;45356;-78
2022/11/12 08:39:11;;;;;;;;;27.67;24.33;;;;;10.96;100.00;102539.09;5058423;28;45435;-78
2022/11/12 08:41:36;;;;;;;;;24.67;23.00;;;;;11.02;100.00;102548.41;5060931;28;45395;-78
2022/11/12 08:44:02;;;;;;;;;21.67;19.33;;;;;11.03;100.00;102536.78;5060839;28;45377;-78
2022/11/12 08:46:27;;;;;;;;;23.67;23.67;;;;;10.99;100.00;102533.53;5061022;28;45357;-78
2022/11/12 08:48:53;;;;;;;;;29.00;23.67;;;;;11.08;100.00;102531.06;5060945;28;45316;-78
2022/11/12 08:51:18;;;;;;;;;24.67;23.67;;;;;11.04;100.00;102519.81;5059352;28;46075;-78
2022/11/12 08:53:44;;;;;;;;;23.67;22.00;;;;;11.10;100.00;102524.63;5060659;28;45747;-78
2022/11/12 08:56:09;;;;;;;;;28.33;28.33;;;;;11.12;100.00;102516.50;5060751;28;45476;-77
2022/11/12 08:58:34;;;;;;;;;26.00;26.00;;;;;11.09;100.00;102503.47;5060852;28;45403;-77
2022/11/12 09:01:08;;;;;;;;;25.33;24.00;;;;;11.24;100.00;102520.75;5060892;28;45462;-76
2022/11/12 09:03:33;;;;;;;;;22.33;20.33;;;;;11.21;100.00;102507.72;5060419;28;45375;-77
2022/11/12 09:06:02;;;;;;;;;26.67;24.33;;;;;11.39;100.00;102532.81;5060541;28;45437;-78
2022/11/12 09:08:27;;;;;;;;;24.33;24.33;;;;;11.49;100.00;102536.34;5060104;28;45187;-80
2022/11/12 09:10:53;;;;;;;;;24.33;24.33;;;;;11.60;100.00;102535.41;5057707;28;49997;-81
2022/11/12 09:13:18;;;;;;;;;21.33;21.33;;;;;11.65;100.00;102543.84;5058497;28;47135;-79
2022/11/12 09:15:45;;;;;;;;;23.00;21.67;;;;;11.56;100.00;102526.00;5059991;28;45295;-78
2022/11/12 09:18:14;;;;;;;;;19.67;19.67;;;;;11.73;100.00;102549.31;5060480;28;45511;-78
2022/11/12 09:20:40;;;;;;;;;23.33;23.00;;;;;11.76;100.00;102532.19;5058821;28;45349;-78
2022/11/12 09:23:09;;;;;;;;;21.00;19.00;;;;;11.67;100.00;102503.75;5057933;28;46058;-77
2022/11/12 09:25:35;;;;;;;;;23.33;20.00;;;;;11.67;100.00;102496.59;5058678;28;45605;-78
2022/11/12 09:28:09;;;;;;;;;19.33;19.33;;;;;11.95;100.00;102538.56;5060525;28;45422;-79
2022/11/12 09:30:36;;;;;;;;;21.33;20.33;;;;;11.97;100.00;102534.75;5060320;28;45419;-79
2022/11/12 09:33:02;;;;;;;;;20.67;20.00;;;;;12.03;100.00;102528.03;5059209;28;45941;-79
2022/11/12 09:35:28;;;;;;;;;22.00;20.00;;;;;11.96;100.00;102509.09;5059926;28;45254;-79
2022/11/12 09:37:53;;;;;;;;;18.33;18.33;;;;;11.90;100.00;102499.00;5060232;28;45337;-79
2022/11/12 09:40:19;;;;;;;;;19.67;19.00;;;;;12.24;100.00;102543.06;5054050;28;45513;-79
2022/11/12 09:42:52;;;;;;;;;17.67;17.00;;;;;12.31;100.00;102543.34;5058820;28;45399;-80
2022/11/12 09:45:28;;;;;;;;;17.67;17.67;;;;;12.12;100.00;102502.38;5058297;28;45535;-79
2022/11/12 09:47:59;;;;;;;;;19.33;17.00;;;;;12.40;100.00;102536.31;5057823;28;45383;-79
2022/11/12 09:50:32;;;;;;;;;17.67;17.33;;;;;12.39;100.00;102518.66;5058630;28;45345;-79
2022/11/12 09:53:15;;;;;;;;;15.33;15.33;;;;;12.56;100.00;102541.06;5058948;28;45338;-79
2022/11/12 09:55:44;;;;;;;;;14.00;14.00;;;;;12.56;100.00;102525.91;5059407;28;45375;-79
2022/11/12 09:58:11;;;;;;;;;20.67;18.00;;;;;12.62;100.00;102524.50;5059794;28;45460;-79
2022/11/12 10:00:41;;;;;;;;;20.00;18.00;;;;;12.47;100.00;102478.75;5063624;28;45555;-79
2022/11/12 10:03:17;;;;;;;;;20.00;17.33;;;;;12.65;100.00;102489.53;5060367;27;46078;-78
2022/11/12 10:05:56;;;;;;;;;19.00;19.00;;;;;12.73;100.00;102495.00;5059404;28;45339;-79
2022/11/12 10:08:32;;;;;;;;;27.33;26.00;;;;;12.78;100.00;102485.69;5059876;28;45292;-78
2022/11/12 10:11:17;;;;;;;;;20.33;20.00;;;;;13.05;100.00;102516.06;5058077;28;46315;-77
2022/11/12 10:13:42;;;;;;;;;19.67;18.67;;;;;13.19;100.00;102525.41;5047708;28;45331;-77
2022/11/12 10:16:43;;;;;;;;;16.33;16.33;;;;;13.28;100.00;102529.88;5058265;28;45465;-79
2022/11/12 10:19:17;;;;;;;;;17.00;17.00;;;;;13.36;100.00;102526.47;5059675;28;45308;-79
2022/11/12 10:21:52;;;;;;;;;18.00;18.00;;;;;13.42;100.00;102525.00;5058231;28;46238;-78
2022/11/12 10:24:20;;;;;;;;;19.33;19.33;;;;;13.34;100.00;102496.38;5046701;28;47545;-79
2022/11/12 10:38:39;;;;;;;;;;;;;;;;;;;;;
2022/11/12 10:42:09;;;;;;;;;;;;;;;;;;;;;
2022/11/12 10:45:11;;;;;;;;;;;;;;;;;;;;;
2022/11/12 10:51:29;;;;;;;;;17.33;17.33;;;;;14.33;100.00;102503.66;4923336;28;45500;-80
2022/11/12 10:53:55;;;;;;;;;19.67;18.33;;;;;14.26;100.00;102485.59;4995576;28;45346;-80
2022/11/12 10:56:25;;;;;;;;;17.67;17.33;;;;;14.48;100.00;102503.94;5049174;28;45463;-80
2022/11/12 10:59:09;;;;;;;;;20.33;18.33;;;;;14.55;100.00;102505.00;5059049;28;45350;-80
2022/11/12 11:01:35;;;;;;;;;19.00;19.00;;;;;14.28;100.00;102445.31;5059212;28;47211;-80
2022/11/12 11:04:00;;;;;;;;;18.33;18.33;;;;;14.56;100.00;102479.91;5057071;28;45350;-82
2022/11/12 11:06:26;;;;;;;;;13.33;10.67;;;;;14.62;100.00;102483.78;5059297;28;45278;-80
2022/11/12 11:09:06;;;;;;;;;18.33;18.33;;;;;14.63;100.00;102480.09;5057559;28;46309;-79
2022/11/12 11:11:32;;;;;;;;;15.00;14.67;;;;;14.72;100.00;102472.97;5057591;28;47277;-81
2022/11/12 11:14:31;;;;;;;;;19.00;18.00;;;;;14.62;100.00;102441.81;5057567;28;45792;-82
2022/11/12 11:17:03;;;;;;;;;20.67;20.67;;;;;14.75;100.00;102446.72;5058901;28;45250;-82
2022/11/12 11:19:39;;;;;;;;;21.33;19.67;;;;;14.99;100.00;102473.78;5057391;28;46500;-81
2022/11/12 11:22:21;;;;;;;;;24.33;23.33;;;;;15.01;100.00;102475.31;5058368;28;46225;-79
2022/11/12 11:24:52;;;;;;;;;27.00;25.67;;;;;14.95;100.00;102456.38;5057583;28;45336;-81
2022/11/12 11:27:36;;;;;;;;;32.00;26.00;;;;;15.12;100.00;102463.44;5058606;28;45419;-81
2022/11/12 11:30:05;;;;;;;;;22.00;20.67;;;;;15.24;100.00;102460.50;5058534;28;45740;-80
2022/11/12 11:32:45;;;;;;;;;21.00;19.33;;;;;15.31;100.00;102461.50;5057103;28;47140;-80
2022/11/12 11:35:14;;;;;;;;;20.33;20.33;;;;;15.40;100.00;102470.41;5058613;28;45267;-79
2022/11/12 11:38:27;;;;;;;;;16.33;16.33;;;;;15.47;100.00;102468.72;5057389;28;45461;-79
2022/11/12 11:41:01;;;;;;;;;19.67;19.67;;;;;15.53;100.00;102462.72;5052825;28;45244;-80
2022/11/12 11:43:51;;;;;;;;;20.33;20.33;;;;;15.53;100.00;102462.72;5057093;28;47450;-80
2022/11/12 11:46:39;;;;;;;;;16.33;16.00;;;;;15.59;100.00;102447.81;5044582;28;45399;-81